Time;durP1;ratioP1;P1;durP2;ratioP2;P2;SDS_P1;SDS_P2;PMS_P1;PMS_P2;Temp;Humidity;BMP_temperature;BMP_pressure;BME280_temperature;BME280_humidity;BME280_pressure;Samples;Min_cycle;Max_cycle;Signal;HPM_P1;HPM_P2
2023/09/01 00:01:04;;;;;;;3.63;3.00;;;;;;;19.89;67.61;94821.94;5051973;28;20187;-43
2023/09/01 00:03:31;;;;;;;3.10;2.80;;;;;;;19.92;67.46;94826.75;5051818;28;20800;-45
2023/09/01 00:06:02;;;;;;;2.88;2.42;;;;;;;19.93;67.57;94828.34;5052046;28;20187;-44
2023/09/01 00:08:29;;;;;;;3.50;2.78;;;;;;;19.91;67.48;94838.16;5052148;28;20194;-44
2023/09/01 00:10:56;;;;;;;3.20;2.63;;;;;;;19.90;67.60;94839.13;5051668;28;20190;-44
2023/09/01 00:13:23;;;;;;;4.35;2.80;;;;;;;19.87;67.94;94840.31;5051768;28;20211;-44
2023/09/01 00:15:49;;;;;;;2.97;2.60;;;;;;;19.82;67.99;94834.91;5051623;28;20206;-45
2023/09/01 00:18:16;;;;;;;4.97;2.85;;;;;;;19.43;67.91;94784.34;5051355;28;20661;-44
2023/09/01 00:20:43;;;;;;;2.80;2.50;;;;;;;19.88;68.18;94848.91;5051825;28;20210;-46
2023/09/01 00:23:11;;;;;;;3.57;2.77;;;;;;;19.86;68.21;94845.69;5051396;28;20191;-45
2023/09/01 00:25:38;;;;;;;4.93;2.50;;;;;;;19.87;68.49;94845.50;5051811;28;20198;-44
2023/09/01 00:28:05;;;;;;;3.57;2.73;;;;;;;19.80;68.43;94848.06;5051588;28;20195;-45
2023/09/01 00:30:32;;;;;;;4.13;2.40;;;;;;;19.75;68.67;94847.03;5051299;28;20643;-45
2023/09/01 00:32:59;;;;;;;4.50;2.67;;;;;;;19.70;68.90;94842.41;5051158;28;20550;-44
2023/09/01 00:35:26;;;;;;;5.53;3.00;;;;;;;19.69;68.76;94847.78;5051385;28;20677;-45
2023/09/01 00:37:52;;;;;;;4.03;2.93;;;;;;;19.74;69.27;94846.22;5051017;28;20236;-46
2023/09/01 00:40:21;;;;;;;5.50;2.47;;;;;;;19.67;69.37;94837.59;5051250;28;20282;-45
2023/09/01 00:42:48;;;;;;;4.93;2.90;;;;;;;19.59;69.48;94842.91;5051017;28;20292;-45
2023/09/01 00:45:15;;;;;;;8.93;3.10;;;;;;;19.57;69.86;94844.88;5050693;28;20191;-45
2023/09/01 00:47:42;;;;;;;2.83;2.57;;;;;;;19.55;70.19;94839.06;5051127;28;20583;-45
2023/09/01 00:50:10;;;;;;;4.47;2.63;;;;;;;19.50;70.18;94833.66;5050777;28;20202;-45
2023/09/01 00:52:36;;;;;;;3.53;2.93;;;;;;;19.47;70.35;94841.81;5051036;28;20195;-45
2023/09/01 00:55:04;;;;;;;3.50;3.03;;;;;;;19.41;70.81;94838.19;5050888;28;20671;-45
2023/09/01 00:57:32;;;;;;;2.60;2.40;;;;;;;19.38;70.79;94830.78;5050856;28;20194;-43
2023/09/01 00:59:59;;;;;;;7.43;3.13;;;;;;;19.36;71.05;94834.56;5050718;28;20617;-44
2023/09/01 01:02:26;;;;;;;4.57;2.37;;;;;;;19.35;71.04;94833.75;5050951;28;20198;-45
2023/09/01 01:04:54;;;;;;;4.40;2.70;;;;;;;19.35;71.21;94838.16;5050244;28;20701;-43
2023/09/01 01:07:27;;;;;;;3.90;2.70;;;;;;;19.31;71.43;94840.31;5050875;28;20206;-44
2023/09/01 01:10:01;;;;;;;5.00;2.83;;;;;;;18.37;71.43;94697.16;5050202;28;20195;-44
2023/09/01 01:12:36;;;;;;;4.53;2.73;;;;;;;19.24;71.70;94845.44;5050368;28;20781;-44
2023/09/01 01:15:09;;;;;;;3.93;2.80;;;;;;;19.17;71.92;94834.22;5050029;28;20270;-44
2023/09/01 01:17:40;;;;;;;5.57;2.83;;;;;;;19.22;72.15;94838.84;5050635;28;20199;-44
2023/09/01 01:20:20;;;;;;;4.00;2.60;;;;;;;19.24;72.20;94834.25;5050171;28;20283;-44
2023/09/01 01:22:50;;;;;;;4.27;3.20;;;;;;;19.20;72.28;94840.81;5050294;28;20202;-43
2023/09/01 01:25:20;;;;;;;4.87;3.30;;;;;;;19.18;72.44;94838.41;5049831;28;20202;-44
2023/09/01 01:27:46;;;;;;;4.60;3.03;;;;;;;19.17;72.68;94834.22;5050089;28;20191;-45
2023/09/01 01:30:15;;;;;;;4.90;3.13;;;;;;;19.16;72.96;94842.16;5049622;28;20222;-43
2023/09/01 01:32:42;;;;;;;3.93;3.17;;;;;;;19.05;73.40;94838.31;5050174;28;20202;-43
2023/09/01 01:35:18;;;;;;;5.23;3.10;;;;;;;18.96;74.15;94842.81;5049780;28;20649;-44
2023/09/01 01:37:53;;;;;;;4.23;3.43;;;;;;;18.90;76.76;94843.53;5050351;28;20240;-44
2023/09/01 01:40:24;;;;;;;4.13;3.27;;;;;;;18.69;77.43;94820.19;5050014;28;20252;-44
2023/09/01 01:42:54;;;;;;;7.80;3.60;;;;;;;18.76;79.14;94827.06;5049937;28;20205;-45
2023/09/01 01:45:23;;;;;;;7.47;3.80;;;;;;;18.72;79.20;94831.00;5049617;28;20256;-45
2023/09/01 01:47:52;;;;;;;7.13;3.60;;;;;;;18.69;79.45;94839.13;5050452;28;20198;-43
2023/09/01 01:50:19;;;;;;;5.57;3.40;;;;;;;18.69;80.53;94831.38;5049467;28;20268;-44
2023/09/01 01:52:45;;;;;;;3.93;3.43;;;;;;;18.66;80.72;94829.13;5049559;28;20241;-43
2023/09/01 01:55:13;;;;;;;6.87;4.03;;;;;;;18.60;80.68;94837.63;5049260;28;20237;-45
2023/09/01 01:57:41;;;;;;;5.53;4.03;;;;;;;18.57;80.65;94832.84;5049779;28;20191;-45
2023/09/01 02:00:14;;;;;;;4.23;3.20;;;;;;;18.56;80.83;94831.22;5049428;28;20227;-45
2023/09/01 02:02:42;;;;;;;7.00;3.97;;;;;;;18.50;81.03;94824.97;5049639;28;20293;-45
2023/09/01 02:05:10;;;;;;;7.77;3.67;;;;;;;18.50;81.01;94832.75;5049371;28;20199;-41
2023/09/01 02:07:37;;;;;;;9.90;3.50;;;;;;;18.30;81.47;94798.06;5049794;28;20190;-43
2023/09/01 02:10:05;;;;;;;9.13;3.77;;;;;;;18.44;81.54;94814.56;5049445;28;20199;-45
2023/09/01 02:12:32;;;;;;;6.27;3.97;;;;;;;18.41;81.51;94827.88;5049532;28;20187;-42
2023/09/01 02:15:00;;;;;;;5.27;3.70;;;;;;;18.38;81.69;94841.16;5049374;28;20226;-46
2023/09/01 02:17:27;;;;;;;10.80;3.90;;;;;;;18.13;81.78;94807.03;5049454;28;20191;-44
2023/09/01 02:19:54;;;;;;;4.80;3.47;;;;;;;18.32;81.75;94839.31;5049234;28;20195;-43
2023/09/01 02:22:21;;;;;;;7.37;4.03;;;;;;;18.30;81.88;94836.91;5049321;28;20191;-43
2023/09/01 02:24:48;;;;;;;6.17;3.90;;;;;;;18.28;82.21;94842.25;5049301;28;20199;-44
2023/09/01 02:27:14;;;;;;;9.47;4.60;;;;;;;18.26;82.92;94830.47;5049070;28;20183;-44
2023/09/01 02:29:41;;;;;;;10.10;4.43;;;;;;;18.20;83.37;94831.22;5049191;28;20219;-43
2023/09/01 02:32:09;;;;;;;7.80;4.43;;;;;;;18.16;84.00;94842.91;5048810;28;20663;-43
2023/09/01 02:34:36;;;;;;;8.53;4.93;;;;;;;18.09;84.27;94839.41;5049469;28;20298;-45
2023/09/01 02:37:04;;;;;;;7.00;4.50;;;;;;;17.61;84.63;94772.50;5048643;28;20293;-43
2023/09/01 02:39:31;;;;;;;6.83;4.40;;;;;;;17.99;84.87;94837.13;5049397;28;20230;-43
2023/09/01 02:42:00;;;;;;;7.97;4.00;;;;;;;17.57;84.63;94784.19;5052474;28;20195;-44
2023/09/01 02:44:26;;;;;;;6.70;3.80;;;;;;;17.91;84.73;94834.63;5053367;28;20191;-44
2023/09/01 02:46:53;;;;;;;7.63;4.10;;;;;;;17.88;85.07;94840.16;5052856;28;20217;-44
2023/09/01 02:49:21;;;;;;;9.37;4.20;;;;;;;17.86;84.77;94832.56;5053133;28;20647;-46
2023/09/01 02:51:48;;;;;;;7.63;4.03;;;;;;;17.66;84.62;94797.84;5052784;28;20199;-45
2023/09/01 02:54:15;;;;;;;8.73;4.20;;;;;;;17.87;84.70;94834.16;5052894;28;20740;-44
2023/09/01 02:56:42;;;;;;;6.10;3.53;;;;;;;17.86;84.71;94832.56;5053329;28;20558;-45
2023/09/01 02:59:09;;;;;;;6.00;3.67;;;;;;;17.88;84.76;94829.81;5052757;28;20257;-45
2023/09/01 03:01:36;;;;;;;6.50;4.37;;;;;;;17.88;84.98;94822.06;5053333;28;20179;-45
2023/09/01 03:04:06;;;;;;;7.03;4.40;;;;;;;17.91;85.19;94829.44;5052680;28;20202;-45
2023/09/01 03:06:35;;;;;;;8.70;4.17;;;;;;;17.92;84.74;94833.63;5052740;28;20237;-45
2023/09/01 03:09:05;;;;;;;4.30;3.47;;;;;;;17.88;84.53;94830.63;5052617;28;20195;-45
2023/09/01 03:11:32;;;;;;;9.70;3.93;;;;;;;17.84;84.49;94834.53;5049902;28;20217;-45
2023/09/01 03:13:59;;;;;;;4.73;3.73;;;;;;;17.76;84.04;94835.44;5052418;28;20218;-41
2023/09/01 03:16:26;;;;;;;7.07;3.60;;;;;;;17.76;84.13;94847.56;5052465;28;20658;-46
2023/09/01 03:18:57;;;;;;;5.20;3.30;;;;;;;17.74;83.72;94847.72;5052470;28;20198;-44
2023/09/01 03:21:23;;;;;;;9.93;4.13;;;;;;;17.77;83.58;94844.78;5052358;28;20237;-44
2023/09/01 03:23:52;;;;;;;5.80;3.63;;;;;;;17.74;83.73;94852.91;5052508;28;20210;-45
2023/09/01 03:26:19;;;;;;;4.90;3.30;;;;;;;17.73;83.58;94851.28;5052766;28;20183;-45
2023/09/01 03:28:47;;;;;;;4.13;3.63;;;;;;;17.50;83.74;94822.91;5052324;28;20320;-45
2023/09/01 03:31:13;;;;;;;9.13;4.03;;;;;;;17.69;84.02;94851.81;5052143;28;20187;-45
2023/09/01 03:33:41;;;;;;;4.87;3.87;;;;;;;17.68;83.85;94855.38;5052441;28;20230;-43
2023/09/01 03:36:09;;;;;;;7.43;3.83;;;;;;;17.65;84.26;94855.72;5052766;28;20194;-44
2023/09/01 03:38:36;;;;;;;5.50;3.23;;;;;;;17.53;84.30;94834.69;5053438;28;20195;-43
2023/09/01 03:41:05;;;;;;;7.07;3.80;;;;;;;17.61;84.32;94849.28;5053040;28;20256;-44
2023/09/01 03:43:32;;;;;;;6.40;3.87;;;;;;;17.61;84.41;94846.72;5052897;28;20199;-46
2023/09/01 03:45:59;;;;;;;8.20;3.40;;;;;;;17.61;84.27;94850.09;5052225;28;20186;-45
2023/09/01 03:48:26;;;;;;;8.10;4.00;;;;;;;17.42;84.09;94817.00;5052194;28;20195;-44
2023/09/01 03:51:09;;;;;;;6.43;3.43;;;;;;;17.60;84.33;94834.75;5051659;28;20294;-45
2023/09/01 03:53:36;;;;;;;6.43;3.30;;;;;;;17.66;84.09;94845.22;5052069;28;20194;-44
2023/09/01 03:56:08;;;;;;;4.33;3.80;;;;;;;17.67;84.22;94841.66;5051704;28;20693;-45
2023/09/01 03:58:35;;;;;;;5.23;3.63;;;;;;;17.70;84.21;94853.41;5052286;28;20214;-44
2023/09/01 04:01:05;;;;;;;5.73;3.73;;;;;;;17.76;84.27;94863.09;5051605;28;20695;-45
2023/09/01 04:03:31;;;;;;;6.00;4.03;;;;;;;17.80;84.37;94852.22;5051821;28;20218;-44
2023/09/01 04:05:58;;;;;;;8.47;4.27;;;;;;;17.80;84.18;94865.13;5051614;28;20268;-45
2023/09/01 04:08:25;;;;;;;5.03;3.87;;;;;;;17.74;84.16;94850.31;5051570;28;20593;-43
2023/09/01 04:10:52;;;;;;;4.47;3.30;;;;;;;17.80;84.03;94859.97;5051521;28;20183;-44
2023/09/01 04:13:21;;;;;;;4.90;3.50;;;;;;;17.68;83.97;94848.41;5051476;28;20563;-45
2023/09/01 04:15:48;;;;;;;9.40;4.27;;;;;;;17.84;83.98;94875.94;5051464;28;20206;-43
2023/09/01 04:18:15;;;;;;;7.83;3.80;;;;;;;17.89;83.60;94878.78;5051521;28;20647;-42
2023/09/01 04:20:47;;;;;;;8.13;4.13;;;;;;;17.96;83.50;94876.28;5051848;28;20198;-42
2023/09/01 04:23:14;;;;;;;8.43;3.87;;;;;;;18.01;83.28;94873.97;5051756;28;20190;-42
2023/09/01 04:25:41;;;;;;;6.63;3.97;;;;;;;17.99;83.38;94868.97;5051215;28;20195;-44
2023/09/01 04:28:08;;;;;;;6.53;3.80;;;;;;;18.08;83.09;94871.47;5051651;28;20230;-45
2023/09/01 04:30:36;;;;;;;5.20;3.73;;;;;;;18.18;83.07;94878.00;5051227;28;20246;-45
2023/09/01 04:33:05;;;;;;;8.80;3.60;;;;;;;18.24;82.63;94877.25;5051685;28;20271;-42
2023/09/01 04:35:32;;;;;;;11.43;4.70;;;;;;;18.26;82.57;94877.06;5051095;28;20230;-42
2023/09/01 04:37:58;;;;;;;9.63;4.80;;;;;;;18.32;82.14;94878.97;5051335;28;20195;-43
2023/09/01 04:40:26;;;;;;;4.93;4.30;;;;;;;18.34;81.99;94882.16;5051016;28;20191;-45
2023/09/01 04:42:53;;;;;;;6.87;4.13;;;;;;;18.36;81.91;94884.59;5051101;28;20674;-44
2023/09/01 04:45:20;;;;;;;10.13;4.30;;;;;;;18.45;81.59;94888.66;5051370;28;20190;-44
2023/09/01 04:47:48;;;;;;;11.77;3.77;;;;;;;18.52;81.37;94894.72;5051002;28;20221;-43
2023/09/01 04:50:15;;;;;;;8.13;4.20;;;;;;;18.54;81.07;94887.59;5050908;28;20198;-44
2023/09/01 04:52:41;;;;;;;6.17;3.97;;;;;;;18.54;81.09;94890.97;5050759;28;20199;-42
2023/09/01 04:55:09;;;;;;;7.07;4.37;;;;;;;18.53;81.21;94891.16;5050884;28;20321;-43
2023/09/01 04:57:36;;;;;;;9.07;4.40;;;;;;;18.54;81.36;94892.75;5050782;28;20202;-45
2023/09/01 05:00:15;;;;;;;6.13;4.47;;;;;;;18.60;81.44;94899.78;5050914;28;20199;-44
2023/09/01 05:02:42;;;;;;;8.57;4.50;;;;;;;18.59;81.32;94905.16;5050181;28;20198;-44
2023/09/01 05:05:11;;;;;;;8.00;4.57;;;;;;;18.54;81.25;94909.09;5050783;28;20528;-45
2023/09/01 05:07:38;;;;;;;9.33;5.63;;;;;;;18.59;81.57;94918.13;5050351;28;20194;-44
2023/09/01 05:10:05;;;;;;;14.03;5.73;;;;;;;18.63;81.24;94916.78;5050697;28;20262;-44
2023/09/01 05:12:32;;;;;;;9.43;4.93;;;;;;;18.68;81.07;94920.41;5050465;28;20227;-43
2023/09/01 05:14:59;;;;;;;8.43;4.43;;;;;;;18.83;80.38;94923.03;5050429;28;20606;-43
2023/09/01 05:17:26;;;;;;;13.13;4.93;;;;;;;18.99;79.40;94927.16;5050127;28;20191;-46
2023/09/01 05:19:54;;;;;;;14.07;5.53;;;;;;;19.20;78.92;94922.00;5050958;28;20191;-45
2023/09/01 05:22:22;;;;;;;12.90;5.30;;;;;;;19.52;77.57;94925.88;5050410;28;20198;-45
2023/09/01 05:24:49;;;;;;;10.77;5.07;;;;;;;19.85;76.50;94930.53;5050333;28;20195;-44
2023/09/01 05:27:18;;;;;;;8.13;4.63;;;;;;;20.24;74.84;94926.59;5050555;28;20187;-45
2023/09/01 05:29:45;;;;;;;9.23;5.07;;;;;;;20.58;73.30;94933.59;5050341;28;20221;-47
2023/09/01 05:32:12;;;;;;;10.40;5.53;;;;;;;20.89;71.71;94940.09;5050346;28;20209;-47
2023/09/01 05:34:39;;;;;;;8.80;5.20;;;;;;;20.97;70.91;94934.72;5049922;28;20222;-45
2023/09/01 05:37:07;;;;;;;7.82;5.07;;;;;;;21.10;70.54;94929.56;5049915;28;20183;-46
2023/09/01 05:39:35;;;;;;;9.93;5.80;;;;;;;21.15;69.92;94924.56;5050160;28;20201;-46
2023/09/01 05:42:02;;;;;;;8.77;5.43;;;;;;;21.36;69.50;94935.84;5050596;28;20586;-46
2023/09/01 05:44:29;;;;;;;7.65;4.97;;;;;;;21.58;68.52;94933.84;5050007;28;20614;-44
2023/09/01 05:46:56;;;;;;;10.20;4.78;;;;;;;21.77;67.94;94933.06;5050323;28;20194;-44
2023/09/01 05:49:24;;;;;;;17.40;5.97;;;;;;;21.86;67.78;94942.28;5049783;28;20194;-45
2023/09/01 05:51:51;;;;;;;6.95;4.85;;;;;;;21.98;67.16;94937.25;5049931;28;20278;-45
2023/09/01 05:54:19;;;;;;;8.43;5.15;;;;;;;22.04;66.93;94945.06;5049509;28;20195;-43
2023/09/01 05:56:47;;;;;;;10.85;4.78;;;;;;;22.09;66.57;94926.22;5049942;28;20666;-44
2023/09/01 05:59:14;;;;;;;9.10;5.28;;;;;;;22.28;66.14;94942.84;5049524;28;20252;-43
2023/09/01 06:01:41;;;;;;;12.27;5.10;;;;;;;22.32;65.85;94941.41;5049854;28;20225;-45
2023/09/01 06:04:08;;;;;;;12.38;5.07;;;;;;;22.28;65.80;94935.03;5049938;28;20202;-46
2023/09/01 06:06:36;;;;;;;11.93;5.53;;;;;;;22.30;66.00;94938.22;5049935;28;20199;-48
2023/09/01 06:09:04;;;;;;;11.88;4.85;;;;;;;22.49;65.92;94934.75;5050623;28;20229;-45
2023/09/01 06:11:31;;;;;;;12.90;4.30;;;;;;;22.79;65.10;94940.25;5050181;28;20194;-45
2023/09/01 06:13:59;;;;;;;7.35;3.83;;;;;;;23.00;64.17;94922.75;5049891;28;20191;-45
2023/09/01 06:16:26;;;;;;;9.98;4.95;;;;;;;23.52;62.65;94946.91;5049761;28;20245;-45
2023/09/01 06:18:53;;;;;;;6.88;3.75;;;;;;;23.72;61.96;94946.81;5050068;28;20198;-44
2023/09/01 06:21:20;;;;;;;3.90;3.45;;;;;;;23.97;61.38;94949.44;5049323;28;20206;-42
2023/09/01 06:23:48;;;;;;;6.00;3.33;;;;;;;24.18;60.57;94948.22;5049738;28;20256;-46
2023/09/01 06:26:17;;;;;;;4.82;3.10;;;;;;;24.26;60.17;94958.38;5049177;28;21013;-44
2023/09/01 06:28:44;;;;;;;6.38;3.33;;;;;;;24.32;59.86;94941.84;5049374;28;20226;-44
2023/09/01 06:31:13;;;;;;;5.28;3.45;;;;;;;24.31;59.76;94937.66;5049442;28;20290;-43
2023/09/01 06:33:42;;;;;;;7.20;2.75;;;;;;;24.59;59.73;94952.84;5049355;28;20191;-45
2023/09/01 06:36:10;;;;;;;8.25;3.30;;;;;;;24.89;58.19;94958.13;5049061;28;20222;-44
2023/09/01 06:38:37;;;;;;;5.95;3.40;;;;;;;24.91;57.61;94963.94;5049724;28;20191;-43
2023/09/01 06:41:04;;;;;;;4.10;3.13;;;;;;;24.93;58.31;94963.72;5049514;28;20206;-44
2023/09/01 06:43:31;;;;;;;5.65;3.67;;;;;;;25.23;57.17;94967.19;5049753;28;20570;-45
2023/09/01 06:45:58;;;;;;;6.03;3.10;;;;;;;25.36;56.70;94970.66;5049612;28;20179;-46
2023/09/01 06:48:26;;;;;;;6.63;3.45;;;;;;;25.40;56.50;94971.81;5049185;28;20205;-45
2023/09/01 06:50:53;;;;;;;5.80;3.60;;;;;;;25.52;56.26;94978.69;5049200;28;20188;-44
2023/09/01 06:53:20;;;;;;;5.50;3.45;;;;;;;25.86;55.36;94979.00;5048928;28;20665;-44
2023/09/01 06:55:47;;;;;;;6.03;3.80;;;;;;;26.09;55.34;94972.19;5049325;28;20702;-43
2023/09/01 06:58:14;;;;;;;6.07;3.42;;;;;;;26.33;54.39;94980.84;5049182;28;20729;-46
2023/09/01 07:00:41;;;;;;;7.90;3.13;;;;;;;26.34;54.32;94977.19;5049416;28;20203;-45
2023/09/01 07:03:08;;;;;;;6.35;3.35;;;;;;;26.50;53.59;94973.91;5048992;28;20191;-45
2023/09/01 07:05:36;;;;;;;8.27;3.42;;;;;;;26.73;53.08;94984.38;5049170;28;20194;-45
2023/09/01 07:08:04;;;;;;;4.68;3.25;;;;;;;26.89;52.96;94979.44;5049287;28;20301;-45
2023/09/01 07:10:30;;;;;;;5.00;3.42;;;;;;;27.10;51.94;94981.47;5049414;28;20201;-45
2023/09/01 07:12:57;;;;;;;5.97;3.30;;;;;;;27.07;52.05;94978.47;5049604;28;20184;-44
2023/09/01 07:15:24;;;;;;;6.90;3.42;;;;;;;27.11;52.28;94992.75;5049211;28;20214;-45
2023/09/01 07:17:51;;;;;;;5.78;3.75;;;;;;;27.12;52.14;94995.16;5048935;28;20183;-44
2023/09/01 07:20:18;;;;;;;7.80;3.63;;;;;;;27.17;52.12;94987.38;5049004;28;20265;-45
2023/09/01 07:22:46;;;;;;;6.22;3.15;;;;;;;27.15;52.17;94988.63;5049370;28;20202;-44
2023/09/01 07:25:14;;;;;;;4.95;3.33;;;;;;;27.09;52.21;94993.00;5048747;28;20201;-43
2023/09/01 07:27:41;;;;;;;4.07;2.88;;;;;;;27.01;52.17;94985.47;5052074;28;20570;-45
2023/09/01 07:30:13;;;;;;;9.07;3.50;;;;;;;27.18;51.54;94982.94;5052515;28;20218;-47
2023/09/01 07:32:40;;;;;;;3.72;2.95;;;;;;;27.15;51.91;94986.00;5052883;28;20673;-45
2023/09/01 07:35:08;;;;;;;5.55;3.60;;;;;;;26.99;52.17;94980.44;5052544;28;20710;-45
2023/09/01 07:37:35;;;;;;;7.50;3.63;;;;;;;26.64;52.10;94948.22;5053006;28;20211;-44
2023/09/01 07:40:04;;;;;;;5.50;3.60;;;;;;;26.71;52.83;94980.41;5052455;28;20202;-44
2023/09/01 07:42:32;;;;;;;3.67;3.28;;;;;;;26.65;52.88;94981.31;5052667;28;20222;-44
2023/09/01 07:44:58;;;;;;;4.85;3.80;;;;;;;26.72;52.37;94984.59;5052616;28;20206;-45
2023/09/01 07:47:25;;;;;;;4.60;3.25;;;;;;;26.74;51.95;94985.97;5052389;28;20194;-44
2023/09/01 07:49:52;;;;;;;5.93;3.20;;;;;;;26.82;52.52;94981.41;5052211;28;20202;-44
2023/09/01 07:52:19;;;;;;;3.13;2.83;;;;;;;26.94;52.29;94987.41;5052459;28;20271;-45
2023/09/01 07:54:45;;;;;;;8.25;3.50;;;;;;;27.07;52.10;94988.97;5052293;28;20191;-45
2023/09/01 07:57:14;;;;;;;3.90;3.45;;;;;;;27.14;51.41;94984.41;5052300;28;20261;-44
2023/09/01 07:59:40;;;;;;;3.72;3.42;;;;;;;26.94;50.92;94974.28;5052014;28;20617;-45
2023/09/01 08:02:07;;;;;;;6.22;3.83;;;;;;;26.75;52.02;94986.78;5052059;28;20237;-43
2023/09/01 08:04:34;;;;;;;5.03;3.67;;;;;;;26.90;51.36;94986.28;5052457;28;20210;-44
2023/09/01 08:07:01;;;;;;;6.30;3.33;;;;;;;26.98;51.18;94985.91;5051918;28;20239;-44
2023/09/01 08:09:27;;;;;;;6.20;3.20;;;;;;;27.31;50.34;94974.75;5052201;28;20195;-44
2023/09/01 08:11:55;;;;;;;5.30;3.67;;;;;;;27.65;49.80;94975.63;5051927;28;20198;-43
2023/09/01 08:14:23;;;;;;;4.05;3.17;;;;;;;27.84;49.01;94980.69;5051957;28;20199;-45
2023/09/01 08:16:50;;;;;;;5.35;3.35;;;;;;;27.94;48.50;94984.28;5051826;28;20238;-45
2023/09/01 08:19:17;;;;;;;5.32;3.35;;;;;;;27.91;48.15;94981.34;5051819;28;20195;-46
2023/09/01 08:21:43;;;;;;;4.80;3.75;;;;;;;27.86;48.26;94979.41;5051563;28;20555;-45
2023/09/01 08:24:11;;;;;;;4.53;3.08;;;;;;;27.99;48.00;94983.56;5051841;28;20195;-45
2023/09/01 08:26:38;;;;;;;4.90;2.95;;;;;;;28.17;47.77;94978.06;5051816;28;20541;-46
2023/09/01 08:29:05;;;;;;;5.93;3.72;;;;;;;28.20;47.53;94979.41;5051800;28;20715;-44
2023/09/01 08:31:33;;;;;;;7.03;3.58;;;;;;;28.32;46.32;94976.69;5051440;28;20233;-46
2023/09/01 08:34:00;;;;;;;4.30;3.65;;;;;;;28.27;46.27;94972.94;5051658;28;20202;-44
2023/09/01 08:36:28;;;;;;;5.95;3.80;;;;;;;28.33;45.21;94971.19;5050931;28;20712;-44
2023/09/01 08:38:55;;;;;;;4.05;3.65;;;;;;;28.35;45.79;94970.94;5050416;28;20190;-45
2023/09/01 08:41:24;;;;;;;5.38;3.70;;;;;;;28.55;44.80;94973.88;5051726;28;20190;-42
2023/09/01 08:43:55;;;;;;;4.20;3.80;;;;;;;28.75;44.53;94966.22;5051198;28;20226;-44
2023/09/01 08:46:22;;;;;;;3.97;3.58;;;;;;;28.86;43.62;94963.75;5051630;28;20191;-44
2023/09/01 08:48:51;;;;;;;4.82;3.88;;;;;;;28.94;44.03;94963.31;5051340;28;20191;-45
2023/09/01 08:51:20;;;;;;;5.60;4.13;;;;;;;29.10;43.68;94969.56;5051407;28;20183;-43
2023/09/01 08:53:47;;;;;;;4.88;3.80;;;;;;;29.21;43.13;94966.78;5050921;28;20682;-45
2023/09/01 08:56:14;;;;;;;4.32;3.88;;;;;;;29.33;42.56;94968.50;5051137;28;20218;-45
2023/09/01 08:58:41;;;;;;;6.72;3.80;;;;;;;29.40;42.57;94969.09;5050595;28;20187;-45
2023/09/01 09:01:09;;;;;;;5.50;4.10;;;;;;;29.38;42.52;94973.81;5050979;28;20202;-44
2023/09/01 09:03:35;;;;;;;8.82;4.15;;;;;;;29.23;42.55;94961.28;5050809;28;20194;-45
2023/09/01 09:06:04;;;;;;;7.20;3.95;;;;;;;29.27;42.41;94964.22;5050741;28;20195;-43
2023/09/01 09:08:31;;;;;;;5.22;3.78;;;;;;;29.33;42.74;94960.59;5050698;28;20186;-44
2023/09/01 09:10:58;;;;;;;4.68;3.90;;;;;;;29.40;42.98;94961.97;5050925;28;20257;-46
2023/09/01 09:13:26;;;;;;;6.32;3.70;;;;;;;29.51;42.80;94960.25;5050238;28;20187;-45
2023/09/01 09:16:10;;;;;;;9.13;4.55;;;;;;;29.68;42.13;94957.53;5050594;28;20697;-42
2023/09/01 09:18:37;;;;;;;6.00;3.28;;;;;;;29.50;42.14;94959.44;5050494;28;20191;-44
2023/09/01 09:21:22;;;;;;;4.03;3.63;;;;;;;29.38;42.46;94950.09;5050609;28;20233;-45
2023/09/01 09:23:49;;;;;;;5.35;3.80;;;;;;;29.31;42.76;94954.78;5050248;28;20278;-45
2023/09/01 09:26:16;;;;;;;5.80;3.30;;;;;;;29.12;42.98;94939.31;5050523;28;20187;-46
2023/09/01 09:28:44;;;;;;;3.70;3.40;;;;;;;29.12;42.48;94949.06;5049894;28;20282;-45
2023/09/01 09:31:11;;;;;;;6.00;3.80;;;;;;;29.02;42.24;94948.91;5050282;28;20195;-44
2023/09/01 09:33:38;;;;;;;5.82;4.35;;;;;;;28.91;42.76;94948.00;5050404;28;20634;-44
2023/09/01 09:36:07;;;;;;;4.45;3.78;;;;;;;28.74;43.02;94942.78;5050141;28;20734;-44
2023/09/01 09:38:40;;;;;;;10.55;3.88;;;;;;;28.75;42.74;94928.59;5049773;28;20186;-45
2023/09/01 09:41:07;;;;;;;5.50;3.60;;;;;;;28.81;42.77;94937.34;5050579;28;20221;-45
2023/09/01 09:43:44;;;;;;;4.45;3.50;;;;;;;28.53;42.47;94941.75;5049847;28;20191;-42
2023/09/01 09:46:10;;;;;;;4.53;3.42;;;;;;;28.38;42.75;94936.28;5049929;28;20361;-44
2023/09/01 09:48:39;;;;;;;8.02;4.20;;;;;;;28.20;43.24;94927.59;5049793;28;20198;-47
2023/09/01 09:51:08;;;;;;;6.35;3.85;;;;;;;28.18;42.90;94931.50;5049600;28;20240;-43
2023/09/01 09:53:37;;;;;;;5.05;3.13;;;;;;;27.93;42.96;94900.38;5049374;28;20631;-44
2023/09/01 09:56:18;;;;;;;6.75;3.70;;;;;;;28.22;43.23;94933.41;5049777;28;20285;-45
2023/09/01 09:58:46;;;;;;;4.38;3.15;;;;;;;28.13;43.04;94900.66;5049581;28;20584;-44
2023/09/01 10:01:17;;;;;;;6.07;3.72;;;;;;;28.34;42.96;94925.41;5049933;28;20203;-42
2023/09/01 10:03:44;;;;;;;6.07;3.15;;;;;;;28.47;42.83;94921.69;5049981;28;20631;-44
2023/09/01 10:06:13;;;;;;;4.05;3.20;;;;;;;28.63;42.86;94922.66;5049920;28;20195;-44
2023/09/01 10:08:40;;;;;;;5.38;3.35;;;;;;;28.63;42.84;94920.81;5049240;28;20190;-44
2023/09/01 10:11:09;;;;;;;12.27;3.83;;;;;;;28.56;42.69;94916.78;5049615;28;20194;-45
2023/09/01 10:13:37;;;;;;;6.93;3.42;;;;;;;28.52;42.33;94916.47;5049487;28;20183;-45
2023/09/01 10:16:06;;;;;;;11.20;4.10;;;;;;;28.42;42.67;94911.88;5049450;28;20740;-45
2023/09/01 10:18:34;;;;;;;3.70;3.40;;;;;;;28.44;42.69;94911.63;5049014;28;20217;-45
2023/09/01 10:21:01;;;;;;;5.63;3.08;;;;;;;28.48;42.24;94912.72;5049702;28;20206;-45
2023/09/01 10:23:30;;;;;;;7.47;3.25;;;;;;;28.43;41.87;94925.81;5049801;28;20183;-45
2023/09/01 10:26:13;;;;;;;7.40;3.85;;;;;;;28.32;41.79;94919.59;5049773;28;20184;-44
2023/09/01 10:28:54;;;;;;;6.07;3.70;;;;;;;28.31;42.74;94923.28;5049191;28;20635;-46
2023/09/01 10:31:21;;;;;;;4.53;3.97;;;;;;;28.33;42.80;94923.84;5049681;28;20187;-45
2023/09/01 10:33:48;;;;;;;3.17;2.88;;;;;;;28.35;41.96;94918.31;5049172;28;20195;-44
2023/09/01 10:36:15;;;;;;;3.85;3.00;;;;;;;28.37;41.69;94921.53;5049510;28;20625;-42
2023/09/01 10:38:43;;;;;;;3.63;2.92;;;;;;;28.46;41.72;94910.34;5049337;28;20195;-45
2023/09/01 10:41:10;;;;;;;4.47;3.38;;;;;;;28.55;41.92;94904.66;5049435;28;20213;-46
2023/09/01 10:43:52;;;;;;;4.40;3.28;;;;;;;28.59;42.13;94901.31;5049083;28;20206;-44
2023/09/01 10:46:28;;;;;;;5.10;3.72;;;;;;;28.55;41.87;94918.63;5049248;28;20191;-44
2023/09/01 10:48:57;;;;;;;5.88;3.47;;;;;;;28.34;41.53;94888.59;5048898;28;20190;-45
2023/09/01 10:51:26;;;;;;;4.50;3.22;;;;;;;28.42;42.19;94906.63;5049291;28;20253;-45
2023/09/01 10:53:56;;;;;;;4.95;3.50;;;;;;;28.50;42.01;94910.66;5048838;28;20563;-44
2023/09/01 10:56:24;;;;;;;3.50;3.03;;;;;;;28.38;40.79;94878.41;5049207;28;20260;-46
2023/09/01 10:58:52;;;;;;;4.55;3.30;;;;;;;28.45;41.35;94900.88;5048934;28;20199;-46
2023/09/01 11:01:30;;;;;;;4.15;3.47;;;;;;;28.48;41.58;94897.72;5050069;28;20214;-45
2023/09/01 11:03:57;;;;;;;4.07;3.10;;;;;;;28.61;40.36;94901.84;5053397;28;20206;-46
2023/09/01 11:06:24;;;;;;;3.97;3.38;;;;;;;28.62;40.24;94900.78;5053106;28;20194;-45
2023/09/01 11:09:01;;;;;;;3.70;3.10;;;;;;;28.52;40.91;94892.00;5052880;28;20195;-47
2023/09/01 11:11:29;;;;;;;4.00;3.05;;;;;;;28.42;40.86;94887.41;5053242;28;20194;-45
2023/09/01 11:14:00;;;;;;;5.38;2.90;;;;;;;28.46;40.99;94885.88;5052876;28;20601;-47
2023/09/01 11:16:27;;;;;;;2.90;2.70;;;;;;;28.63;39.73;94883.97;5052742;28;20690;-44
2023/09/01 11:19:00;;;;;;;4.07;2.90;;;;;;;28.67;39.44;94887.72;5052854;28;20197;-44
2023/09/01 11:21:27;;;;;;;3.15;2.83;;;;;;;28.58;40.02;94877.84;5052808;28;20226;-46
2023/09/01 11:23:58;;;;;;;5.25;3.47;;;;;;;28.65;40.11;94881.09;5052960;28;20671;-46
2023/09/01 11:26:26;;;;;;;4.15;3.35;;;;;;;28.65;40.04;94868.72;5053179;28;20518;-43
2023/09/01 11:28:54;;;;;;;4.68;3.53;;;;;;;28.64;40.39;94872.41;5052476;28;20234;-43
2023/09/01 11:31:21;;;;;;;5.40;3.22;;;;;;;28.70;40.73;94870.63;5052790;28;20198;-45
2023/09/01 11:33:52;;;;;;;5.75;3.67;;;;;;;28.83;39.83;94872.06;5052734;28;20539;-48
2023/09/01 11:36:20;;;;;;;3.40;3.10;;;;;;;28.77;39.77;94858.06;5052739;28;20223;-44